createdAt,value
2023-04-27T00:05:46.437Z,11.65
2023-04-27T00:12:48.163Z,11.68
2023-04-27T00:19:49.730Z,11.87
2023-04-27T00:26:51.278Z,11.68
2023-04-27T00:33:52.951Z,11.73
2023-04-27T00:41:04.337Z,11.67
2023-04-27T00:48:05.921Z,11.62
2023-04-27T00:55:08.308Z,11.66
2023-04-27T01:02:10.610Z,11.67
2023-04-27T01:09:14.015Z,11.60
2023-04-27T01:16:17.758Z,11.53
2023-04-27T01:23:19.392Z,11.52
2023-04-27T01:30:22.541Z,11.37
2023-04-27T01:37:24.122Z,11.38
2023-04-27T01:44:25.989Z,11.33
2023-04-27T01:51:29.144Z,11.27
2023-04-27T01:58:30.925Z,11.27
2023-04-27T02:05:32.584Z,11.37
2023-04-27T02:12:34.188Z,11.23
2023-04-27T02:19:36.316Z,11.25
2023-04-27T02:26:37.931Z,11.16
2023-04-27T02:33:39.560Z,11.14
2023-04-27T02:40:41.158Z,11.12
2023-04-27T02:47:43.010Z,11.16
2023-04-27T02:54:44.656Z,10.95
2023-04-27T03:01:46.674Z,10.76
2023-04-27T03:08:48.409Z,10.97
2023-04-27T03:15:50.043Z,10.77
2023-04-27T03:22:54.161Z,10.79
2023-04-27T03:29:55.829Z,10.86
2023-04-27T03:36:57.739Z,10.83
2023-04-27T03:43:59.324Z,10.79
2023-04-27T03:51:01.584Z,10.59
2023-04-27T03:58:03.257Z,10.67
2023-04-27T04:05:07.455Z,10.78
2023-04-27T04:12:09.339Z,10.73
2023-04-27T04:19:11.314Z,10.73
2023-04-27T04:26:13.606Z,10.78
2023-04-27T04:33:15.471Z,10.68
2023-04-27T04:40:17.108Z,10.74
2023-04-27T04:47:18.965Z,10.93
2023-04-27T04:54:21.629Z,10.96
2023-04-27T05:01:23.266Z,10.91
2023-04-27T05:08:24.923Z,11.13
2023-04-27T05:15:26.490Z,11.11
2023-04-27T05:22:28.063Z,11.20
2023-04-27T05:29:29.782Z,11.18
2023-04-27T05:36:32.094Z,11.22
2023-04-27T05:43:35.058Z,11.28
2023-04-27T05:50:36.692Z,11.39
2023-04-27T05:57:39.069Z,11.50
2023-04-27T06:04:40.745Z,11.35
2023-04-27T06:11:42.353Z,11.53
2023-04-27T06:18:43.937Z,11.38
2023-04-27T06:25:45.840Z,11.49
2023-04-27T06:32:47.468Z,11.63
2023-04-27T06:39:49.080Z,11.75
2023-04-27T06:46:51.264Z,11.43
2023-04-27T06:53:54.921Z,11.79
2023-04-27T07:00:56.481Z,11.95
2023-04-27T07:07:58.483Z,12.21
2023-04-27T07:15:02.656Z,12.45
2023-04-27T07:22:04.246Z,12.47
2023-04-27T07:29:14.493Z,12.87
2023-04-27T07:36:20.914Z,13.10
2023-04-27T07:43:23.998Z,13.29
2023-04-27T07:50:26.892Z,14.01
2023-04-27T07:57:28.526Z,14.11
2023-04-27T08:04:30.243Z,13.75
2023-04-27T08:11:32.123Z,13.68
2023-04-27T08:18:34.280Z,13.81
2023-04-27T08:25:36.527Z,14.61
2023-04-27T08:32:38.158Z,14.10
2023-04-27T08:39:40.614Z,13.89
2023-04-27T08:46:42.235Z,13.68
2023-04-27T08:53:49.402Z,13.82
2023-04-27T09:00:52.707Z,14.34
2023-04-27T09:07:57.969Z,14.27
2023-04-27T09:15:00.603Z,14.18
2023-04-27T09:22:11.253Z,14.34
2023-04-27T09:29:13.265Z,14.53
2023-04-27T09:36:15.299Z,14.83
2023-04-27T09:43:17.429Z,14.62
2023-04-27T09:50:19.097Z,14.35
2023-04-27T09:57:35.830Z,14.76
2023-04-27T10:05:03.944Z,15.42
2023-04-27T10:12:18.192Z,15.25
2023-04-27T10:19:20.984Z,16.99
2023-04-27T10:26:26.548Z,18.51
2023-04-27T10:33:28.101Z,20.04
2023-04-27T10:40:32.967Z,21.14
2023-04-27T10:47:41.644Z,21.51
2023-04-27T10:54:45.832Z,20.22
2023-04-27T11:01:51.324Z,20.91
2023-04-27T11:08:53.059Z,21.28
2023-04-27T11:15:56.178Z,21.37
2023-04-27T11:22:57.764Z,19.81
2023-04-27T11:29:59.310Z,18.56
2023-04-27T11:44:07.427Z,17.08
2023-04-27T11:51:10.516Z,16.89
2023-04-27T11:58:15.822Z,17.08
2023-04-27T12:05:19.675Z,16.73
2023-04-27T12:12:24.256Z,17.41
2023-04-27T12:19:26.047Z,18.08
2023-04-27T12:26:29.255Z,17.39
2023-04-27T12:33:30.953Z,16.56
2023-04-27T12:40:33.224Z,16.71
2023-04-27T12:47:49.794Z,16.37
2023-04-27T12:55:01.684Z,17.11
2023-04-27T13:02:03.728Z,17.71
2023-04-27T13:09:06.698Z,18.19
2023-04-27T13:16:08.446Z,18.24
2023-04-27T13:23:10.180Z,19.13
2023-04-27T13:30:12.023Z,18.89
2023-04-27T13:37:13.532Z,18.70
2023-04-27T13:44:15.464Z,18.31
2023-04-27T13:51:17.538Z,18.61
2023-04-27T13:58:19.181Z,20.16
2023-04-27T14:05:20.949Z,20.16
2023-04-27T14:12:22.588Z,19.14
2023-04-27T14:19:24.207Z,18.48
2023-04-27T14:26:26.027Z,18.40
2023-04-27T14:33:27.674Z,17.71
2023-04-27T14:40:30.086Z,17.97
2023-04-27T14:47:32.274Z,18.24
2023-04-27T14:54:35.524Z,18.00
2023-04-27T15:01:37.364Z,18.59
2023-04-27T15:08:39.142Z,18.47
2023-04-27T15:15:41.071Z,18.75
2023-04-27T15:22:42.692Z,18.20
2023-04-27T15:29:44.232Z,17.80
2023-04-27T15:36:46.330Z,17.56
2023-04-27T15:43:47.932Z,17.45
2023-04-27T15:50:49.451Z,17.45
2023-04-27T15:57:51.163Z,17.45
2023-04-27T16:04:56.414Z,17.73
2023-04-27T16:11:57.996Z,18.15
2023-04-27T16:18:59.597Z,18.60
2023-04-27T16:26:01.180Z,18.49
2023-04-27T16:33:02.766Z,18.56
2023-04-27T16:40:07.026Z,18.16
2023-04-27T16:47:08.690Z,18.24
2023-04-27T16:54:10.634Z,18.01
2023-04-27T17:01:12.275Z,17.89
2023-04-27T17:08:14.072Z,17.70
2023-04-27T17:15:15.724Z,17.61
2023-04-27T17:22:17.607Z,17.12
2023-04-27T17:29:19.159Z,16.83
2023-04-27T17:36:20.982Z,16.73
2023-04-27T17:43:23.639Z,16.45
2023-04-27T17:50:25.674Z,16.28
2023-04-27T17:57:27.209Z,16.00
2023-04-27T18:04:28.935Z,15.77
2023-04-27T18:11:30.905Z,15.65
2023-04-27T18:18:32.575Z,15.49
2023-04-27T18:25:34.217Z,15.19
2023-04-27T18:32:36.000Z,15.11
2023-04-27T18:39:37.584Z,14.95
2023-04-27T18:46:39.145Z,14.73
2023-04-27T18:53:40.806Z,14.68
2023-04-27T19:00:42.484Z,14.64
2023-04-27T19:07:44.103Z,14.55
2023-04-27T19:14:45.728Z,14.47
2023-04-27T19:21:47.759Z,14.37
2023-04-27T19:28:49.355Z,14.16
2023-04-27T19:35:52.300Z,14.03
2023-04-27T19:42:53.821Z,14.00
2023-04-27T19:49:58.276Z,13.93
2023-04-27T19:56:59.860Z,13.82
2023-04-27T20:04:01.632Z,13.77
2023-04-27T20:11:03.333Z,13.66
2023-04-27T20:18:04.945Z,13.58
2023-04-27T20:25:07.826Z,13.49
2023-04-27T20:32:09.570Z,13.35
2023-04-27T20:39:11.947Z,13.26
2023-04-27T20:46:13.924Z,13.17
2023-04-27T20:53:15.595Z,13.07
2023-04-27T21:00:18.657Z,13.00
2023-04-27T21:07:20.204Z,12.95
2023-04-27T21:14:21.751Z,12.83
2023-04-27T21:21:24.308Z,12.77
2023-04-27T21:28:26.675Z,12.71
2023-04-27T21:35:28.558Z,12.68
2023-04-27T21:42:30.235Z,12.59
2023-04-27T21:49:31.805Z,12.55
2023-04-27T21:56:33.430Z,12.35
2023-04-27T22:03:35.083Z,12.25
2023-04-27T22:10:37.272Z,12.19
2023-04-27T22:17:39.566Z,12.10
2023-04-27T22:24:41.196Z,12.07
2023-04-27T22:31:42.964Z,12.01
2023-04-27T22:38:44.499Z,12.04
2023-04-27T22:45:46.092Z,12.00
2023-04-27T22:52:48.195Z,11.95
2023-04-27T22:59:51.455Z,11.83
2023-04-27T23:06:53.718Z,11.68
2023-04-27T23:13:57.367Z,11.75
2023-04-27T23:20:58.913Z,11.63
2023-04-27T23:28:00.871Z,11.65
2023-04-27T23:35:02.389Z,11.54
2023-04-27T23:42:04.014Z,11.54
2023-04-27T23:49:05.554Z,11.47
2023-04-27T23:56:07.295Z,11.37
